Time;durP1;ratioP1;P1;durP2;ratioP2;P2;SDS_P1;SDS_P2;PMS_P1;PMS_P2;Temp;Humidity;BMP_temperature;BMP_pressure;BME280_temperature;BME280_humidity;BME280_pressure;Samples;Min_cycle;Max_cycle;Signal;HPM_P1;HPM_P2
2021/04/11 00:00:19;;;;;;;;;;;9.20;99.90;;;;;;5087344;28;19981;-74
2021/04/11 00:02:45;;;;;;;;;;;9.20;99.90;;;;;;5087742;28;19912;-73
2021/04/11 00:05:13;;;;;;;;;;;9.20;99.90;;;;;;5084529;28;19952;-73
2021/04/11 00:07:41;;;;;;;;;;;9.10;99.90;;;;;;5088725;28;20193;-73
2021/04/11 00:10:10;;;;;;;;;;;9.20;99.90;;;;;;5085649;28;19973;-73
2021/04/11 00:12:35;;;;;;;;;;;9.10;99.90;;;;;;5089097;28;20521;-72
2021/04/11 00:15:01;;;;;;;;;;;9.10;99.90;;;;;;5088284;28;19924;-72
2021/04/11 00:17:26;;;;;;;;;;;9.10;99.90;;;;;;4729950;27;10000475;-72
2021/04/11 00:19:52;;;;;;;;;;;9.10;99.90;;;;;;5088675;28;19969;-71
2021/04/11 00:22:17;;;;;;;;;;;9.10;99.90;;;;;;5085482;28;19934;-71
2021/04/11 00:24:45;;;;;;;;;;;9.10;99.90;;;;;;5089684;28;19913;-72
2021/04/11 00:27:11;;;;;;;;;;;9.10;99.90;;;;;;5087423;28;19951;-72
2021/04/11 00:29:36;;;;;;;;;;;9.00;99.90;;;;;;5089658;28;19961;-72
2021/04/11 00:32:05;;;;;;;;;;;9.00;99.90;;;;;;5091013;28;20478;-72
2021/04/11 00:34:32;;;;;;;;;;;8.90;99.90;;;;;;5088413;28;19987;-72
2021/04/11 00:37:00;;;;;;;;;;;8.90;99.90;;;;;;5076699;28;20215;-72
2021/04/11 00:39:28;;;;;;;;;;;8.90;99.90;;;;;;5076118;28;20812;-72
2021/04/11 00:41:55;;;;;;;;;;;8.80;99.90;;;;;;5082447;28;19986;-72
2021/04/11 00:44:23;;;;;;;;;;;8.80;99.90;;;;;;5081997;28;19927;-72
2021/04/11 00:46:51;;;;;;;;;;;8.70;99.90;;;;;;5079930;28;20007;-72
2021/04/11 00:49:19;;;;;;;;;;;8.70;99.90;;;;;;5097187;28;20372;-72
2021/04/11 00:51:44;;;;;;;;;;;8.70;99.90;;;;;;5094529;28;20372;-72
2021/04/11 00:54:10;;;;;;;;;;;8.60;99.90;;;;;;5093781;28;19937;-72
2021/04/11 00:56:36;;;;;;;;;;;8.60;99.90;;;;;;5091226;28;19912;-72
2021/04/11 00:59:02;;;;;;;;;;;8.60;99.90;;;;;;5097435;28;20006;-72
2021/04/11 01:01:28;;;;;;;;;;;8.60;99.90;;;;;;5090351;28;19927;-72
2021/04/11 01:03:54;;;;;;;;;;;8.60;99.90;;;;;;5076489;28;19920;-72
2021/04/11 01:06:20;;;;;;;;;;;8.50;99.90;;;;;;5097945;28;19931;-72
2021/04/11 01:08:48;;;;;;;;;;;8.50;99.90;;;;;;5092122;28;19912;-72
2021/04/11 01:11:17;;;;;;;;;;;8.50;99.90;;;;;;5091080;28;19919;-72
2021/04/11 01:13:43;;;;;;;;;;;8.50;99.90;;;;;;5090465;28;19966;-72
2021/04/11 01:16:09;;;;;;;;;;;8.50;99.90;;;;;;5077418;28;19912;-72
2021/04/11 01:18:35;;;;;;;;;;;8.50;99.90;;;;;;5095229;28;19917;-72
2021/04/11 01:21:03;;;;;;;;;;;8.50;99.90;;;;;;5076384;28;20004;-72
2021/04/11 01:23:29;;;;;;;;;;;8.50;99.90;;;;;;5088993;28;19966;-72
2021/04/11 01:25:55;;;;;;;;;;;8.50;99.90;;;;;;5091648;28;19912;-72
2021/04/11 01:28:24;;;;;;;;;;;8.50;99.90;;;;;;5095932;28;19922;-72
2021/04/11 01:30:52;;;;;;;;;;;8.50;99.90;;;;;;5093427;28;19916;-72
2021/04/11 01:33:19;;;;;;;;;;;8.50;99.90;;;;;;5089591;28;20384;-72
2021/04/11 01:35:45;;;;;;;;;;;8.50;99.90;;;;;;5093443;28;19919;-72
2021/04/11 01:38:10;;;;;;;;;;;8.40;99.90;;;;;;5090692;28;19912;-72
2021/04/11 01:40:55;;;;;;;;;;;8.40;99.90;;;;;;5094595;28;19984;-72
2021/04/11 01:43:21;;;;;;;;;;;8.40;99.90;;;;;;5124182;27;19916;-72
2021/04/11 01:45:47;;;;;;;;;;;8.40;99.90;;;;;;5091217;28;19911;-72
2021/04/11 01:48:13;;;;;;;;;;;8.30;99.90;;;;;;5090443;28;19931;-72
2021/04/11 01:50:38;;;;;;;;;;;8.30;99.90;;;;;;5089874;28;19919;-72
2021/04/11 01:53:04;;;;;;;;;;;8.30;99.90;;;;;;5090120;28;20011;-72
2021/04/11 01:55:32;;;;;;;;;;;8.30;99.90;;;;;;5090445;28;19920;-72
2021/04/11 01:57:58;;;;;;;;;;;8.30;99.90;;;;;;5089372;28;19931;-72
2021/04/11 02:00:34;;;;;;;;;;;8.30;99.90;;;;;;5108739;27;19920;-72
2021/04/11 02:03:00;;;;;;;;;;;8.30;99.90;;;;;;5092504;28;19912;-72
2021/04/11 02:05:26;;;;;;;;;;;8.30;99.90;;;;;;5108038;27;20006;-72
2021/04/11 02:07:54;;;;;;;;;;;8.20;99.90;;;;;;5093174;28;20006;-72
2021/04/11 02:10:21;;;;;;;;;;;8.30;99.90;;;;;;5108354;27;19912;-72
2021/04/11 02:12:49;;;;;;;;;;;8.30;99.90;;;;;;5089431;28;20333;-72
2021/04/11 02:15:25;;;;;;;;;;;8.30;99.90;;;;;;5096648;28;19912;-72
2021/04/11 02:17:54;;;;;;;;;;;8.30;99.90;;;;;;5091042;28;20405;-72
2021/04/11 02:20:21;;;;;;;;;;;8.30;99.90;;;;;;5075282;28;19946;-71
2021/04/11 02:22:46;;;;;;;;;;;8.30;99.90;;;;;;5092813;28;19922;-72
2021/04/11 02:25:17;;;;;;;;;;;8.30;99.90;;;;;;5090270;28;19916;-72
2021/04/11 02:27:42;;;;;;;;;;;8.30;99.90;;;;;;5088034;28;19920;-72
2021/04/11 02:30:08;;;;;;;;;;;8.30;99.90;;;;;;5087654;28;19923;-72
2021/04/11 02:32:34;;;;;;;;;;;8.30;99.90;;;;;;5088917;28;19919;-72
2021/04/11 02:35:00;;;;;;;;;;;8.30;99.90;;;;;;5087411;28;19912;-72
2021/04/11 02:37:30;;;;;;;;;;;8.40;99.90;;;;;;5093902;28;20453;-72
2021/04/11 02:39:56;;;;;;;;;;;8.40;99.90;;;;;;5093396;28;20367;-72
2021/04/11 02:42:26;;;;;;;;;;;8.40;99.90;;;;;;5087737;28;20581;-72
2021/04/11 02:44:52;;;;;;;;;;;8.40;99.90;;;;;;5089711;28;20435;-72
2021/04/11 02:47:17;;;;;;;;;;;8.40;99.90;;;;;;5087236;28;19923;-72
2021/04/11 02:49:43;;;;;;;;;;;8.40;99.90;;;;;;5088098;28;19970;-72
2021/04/11 02:52:14;;;;;;;;;;;8.40;99.90;;;;;;5079979;28;19961;-72
2021/04/11 02:54:39;;;;;;;;;;;8.40;99.90;;;;;;5081843;28;19920;-72
2021/04/11 02:57:07;;;;;;;;;;;8.30;99.90;;;;;;5077500;28;20260;-72
2021/04/11 02:59:33;;;;;;;;;;;8.30;99.90;;;;;;5072963;28;19931;-72
2021/04/11 03:01:58;;;;;;;;;;;8.30;99.90;;;;;;5085395;28;19919;-72
2021/04/11 03:04:24;;;;;;;;;;;8.30;99.90;;;;;;5106511;27;20057;-72
2021/04/11 03:06:52;;;;;;;;;;;8.20;99.90;;;;;;5076531;28;19977;-71
2021/04/11 03:09:30;;;;;;;;;;;8.10;99.90;;;;;;5074754;28;20309;-72
2021/04/11 03:11:58;;;;;;;;;;;8.10;99.90;;;;;;5087195;28;20019;-72
2021/04/11 03:14:30;;;;;;;;;;;8.10;99.90;;;;;;5077089;28;19956;-72
2021/04/11 03:16:56;;;;;;;;;;;8.10;99.90;;;;;;5089243;28;19967;-72
2021/04/11 03:19:22;;;;;;;;;;;8.10;99.90;;;;;;5089428;28;19947;-72
2021/04/11 03:21:48;;;;;;;;;;;8.00;99.90;;;;;;5108394;27;19931;-72
2021/04/11 03:24:13;;;;;;;;;;;8.00;99.90;;;;;;5092184;28;19920;-72
2021/04/11 03:26:50;;;;;;;;;;;8.00;99.90;;;;;;5069499;28;20345;-72
2021/04/11 03:29:36;;;;;;;;;;;7.90;99.90;;;;;;5087962;28;19912;-72
2021/04/11 03:32:28;;;;;;;;;;;8.00;99.90;;;;;;5094236;28;20269;-72
2021/04/11 03:34:56;;;;;;;;;;;7.90;99.90;;;;;;5087347;28;19969;-72
2021/04/11 03:37:22;;;;;;;;;;;7.90;99.90;;;;;;5106030;27;20006;-72
2021/04/11 03:39:50;;;;;;;;;;;7.90;99.90;;;;;;5096876;28;20413;-72
2021/04/11 03:42:20;;;;;;;;;;;7.90;99.90;;;;;;5092600;28;20451;-73
2021/04/11 03:44:46;;;;;;;;;;;7.90;99.90;;;;;;5087891;28;20026;-73
2021/04/11 03:47:19;;;;;;;;;;;7.90;99.90;;;;;;5079507;28;20420;-73
2021/04/11 03:49:52;;;;;;;;;;;7.90;99.90;;;;;;5107276;27;19920;-74
2021/04/11 03:52:27;;;;;;;;;;;7.90;99.90;;;;;;5119950;27;19917;-73
2021/04/11 03:54:53;;;;;;;;;;;7.80;99.90;;;;;;5077167;28;19920;-73
2021/04/11 03:57:22;;;;;;;;;;;7.90;99.90;;;;;;5076313;28;19927;-73
2021/04/11 03:59:49;;;;;;;;;;;7.80;99.90;;;;;;5077298;28;19931;-73
2021/04/11 04:02:18;;;;;;;;;;;7.80;99.90;;;;;;5081331;28;20027;-73
2021/04/11 04:04:43;;;;;;;;;;;7.80;99.90;;;;;;5063474;28;19920;-73
2021/04/11 04:07:16;;;;;;;;;;;7.80;99.90;;;;;;5081302;28;20303;-73
2021/04/11 04:09:42;;;;;;;;;;;7.80;99.90;;;;;;5077041;28;19920;-73
2021/04/11 04:12:11;;;;;;;;;;;7.80;99.90;;;;;;5059728;28;20474;-73
2021/04/11 04:14:53;;;;;;;;;;;7.80;99.90;;;;;;5092029;28;20409;-73
2021/04/11 04:17:21;;;;;;;;;;;7.80;99.90;;;;;;5092977;28;19917;-73
2021/04/11 04:20:06;;;;;;;;;;;7.80;99.90;;;;;;5096721;28;20256;-73
2021/04/11 04:22:36;;;;;;;;;;;7.80;99.90;;;;;;5110800;27;19931;-73
2021/04/11 04:25:05;;;;;;;;;;;7.90;99.90;;;;;;5109939;27;19970;-73
2021/04/11 04:27:40;;;;;;;;;;;7.90;99.90;;;;;;5065069;28;20404;-73
2021/04/11 04:30:10;;;;;;;;;;;7.90;99.90;;;;;;5092873;28;19935;-73
2021/04/11 04:32:36;;;;;;;;;;;7.90;99.90;;;;;;5098210;28;19942;-73
2021/04/11 04:35:20;;;;;;;;;;;7.90;99.90;;;;;;5084431;28;20503;-72
2021/04/11 04:38:04;;;;;;;;;;;7.90;99.90;;;;;;5076878;28;20341;-72
2021/04/11 04:40:35;;;;;;;;;;;8.00;99.90;;;;;;5077240;28;20685;-73
2021/04/11 04:43:01;;;;;;;;;;;7.90;99.90;;;;;;5079540;28;19919;-73
2021/04/11 04:45:34;;;;;;;;;;;7.90;99.90;;;;;;5102624;27;19916;-72
2021/04/11 04:48:14;;;;;;;;;;;7.90;99.90;;;;;;5127108;27;21744;-72
2021/04/11 04:50:41;;;;;;;;;;;7.90;99.90;;;;;;5077470;28;19950;-73
2021/04/11 04:53:10;;;;;;;;;;;7.90;99.90;;;;;;5077043;28;20019;-73
2021/04/11 04:55:36;;;;;;;;;;;7.90;99.90;;;;;;5088881;28;20336;-72
2021/04/11 04:58:03;;;;;;;;;;;7.90;99.90;;;;;;5081386;28;19916;-72
2021/04/11 05:00:35;;;;;;;;;;;7.90;99.90;;;;;;5088423;28;19920;-72
2021/04/11 05:03:05;;;;;;;;;;;7.90;99.90;;;;;;5092782;28;19919;-73
2021/04/11 05:05:30;;;;;;;;;;;7.90;99.90;;;;;;5092848;28;19920;-73
2021/04/11 05:07:56;;;;;;;;;;;7.90;99.90;;;;;;5084677;28;20304;-72
2021/04/11 05:10:30;;;;;;;;;;;8.00;99.90;;;;;;5085424;28;19920;-72
2021/04/11 05:13:11;;;;;;;;;;;8.00;99.90;;;;;;5092004;28;19970;-72
2021/04/11 05:15:38;;;;;;;;;;;8.00;99.90;;;;;;5108076;27;19920;-72
2021/04/11 05:18:11;;;;;;;;;;;8.00;99.90;;;;;;5093654;28;19915;-73
2021/04/11 05:20:37;;;;;;;;;;;8.00;99.90;;;;;;5081219;28;20012;-72
2021/04/11 05:23:21;;;;;;;;;;;8.00;99.90;;;;;;5082389;28;19924;-72
2021/04/11 05:25:48;;;;;;;;;;;8.00;99.90;;;;;;5092368;28;19913;-72
2021/04/11 05:28:35;;;;;;;;;;;8.10;99.90;;;;;;5079768;28;20357;-72
2021/04/11 05:31:04;;;;;;;;;;;8.10;99.90;;;;;;5099713;27;20360;-72
2021/04/11 05:33:30;;;;;;;;;;;8.10;99.90;;;;;;5091116;28;19919;-72
2021/04/11 05:36:16;;;;;;;;;;;8.20;99.90;;;;;;5092397;28;19920;-72
2021/04/11 05:38:41;;;;;;;;;;;8.30;99.90;;;;;;5091688;28;19912;-73
2021/04/11 05:41:12;;;;;;;;;;;8.30;99.90;;;;;;5091173;28;19942;-74
2021/04/11 05:43:38;;;;;;;;;;;8.40;99.90;;;;;;5090801;28;19985;-72
2021/04/11 05:46:07;;;;;;;;;;;8.40;99.90;;;;;;5091560;28;19959;-72
2021/04/11 05:48:42;;;;;;;;;;;8.50;99.90;;;;;;5093594;28;20007;-72
2021/04/11 05:51:15;;;;;;;;;;;8.50;99.90;;;;;;5075987;28;20356;-72
2021/04/11 05:53:51;;;;;;;;;;;8.70;99.90;;;;;;5075418;28;20305;-72
2021/04/11 05:56:21;;;;;;;;;;;8.70;99.90;;;;;;5061435;28;20580;-72
2021/04/11 05:58:51;;;;;;;;;;;8.80;99.90;;;;;;5087205;28;19979;-72
2021/04/11 06:01:46;;;;;;;;;;;8.80;99.90;;;;;;5082832;28;19930;-72
2021/04/11 06:04:20;;;;;;;;;;;8.90;99.90;;;;;;5080465;28;19920;-72
2021/04/11 06:06:47;;;;;;;;;;;9.00;99.90;;;;;;5082658;28;19927;-72
2021/04/11 06:09:15;;;;;;;;;;;9.00;99.90;;;;;;5074790;28;19963;-72
2021/04/11 06:11:43;;;;;;;;;;;9.10;99.90;;;;;;5092976;28;20336;-72
2021/04/11 06:14:13;;;;;;;;;;;9.10;99.90;;;;;;5094453;28;19916;-72
2021/04/11 06:16:39;;;;;;;;;;;9.20;99.90;;;;;;5087110;28;19916;-72
2021/04/11 06:19:05;;;;;;;;;;;9.20;99.90;;;;;;5089015;28;19933;-72
2021/04/11 06:21:31;;;;;;;;;;;9.20;99.90;;;;;;5093208;28;19920;-72
2021/04/11 06:23:58;;;;;;;;;;;9.30;99.90;;;;;;5087573;28;19920;-72
2021/04/11 06:26:26;;;;;;;;;;;9.30;99.90;;;;;;5105247;27;19980;-72
2021/04/11 06:29:03;;;;;;;;;;;9.40;99.90;;;;;;5076167;28;20564;-72
2021/04/11 06:31:31;;;;;;;;;;;9.50;99.90;;;;;;5074555;28;20529;-72
2021/04/11 06:33:57;;;;;;;;;;;9.50;99.90;;;;;;5073434;28;20506;-72
2021/04/11 06:36:36;;;;;;;;;;;9.60;99.90;;;;;;5076923;28;20343;-72
2021/04/11 06:39:04;;;;;;;;;;;9.70;99.90;;;;;;5074273;28;21776;-72
2021/04/11 06:41:48;;;;;;;;;;;9.70;99.90;;;;;;5082366;28;19940;-72
2021/04/11 06:44:25;;;;;;;;;;;9.80;99.90;;;;;;5089398;28;20061;-71
2021/04/11 06:47:00;;;;;;;;;;;9.80;99.90;;;;;;5093487;28;20437;-72
2021/04/11 06:49:44;;;;;;;;;;;9.80;99.90;;;;;;5081396;28;19937;-72
2021/04/11 06:52:28;;;;;;;;;;;9.90;99.90;;;;;;5090840;28;19917;-71
2021/04/11 06:55:00;;;;;;;;;;;9.90;99.90;;;;;;5078898;28;20042;-72
2021/04/11 06:57:31;;;;;;;;;;;9.90;99.90;;;;;;5076602;28;19927;-72
2021/04/11 07:00:08;;;;;;;;;;;9.90;99.90;;;;;;5083077;28;20525;-72
2021/04/11 07:02:52;;;;;;;;;;;9.90;99.90;;;;;;5092878;28;19949;-72
2021/04/11 07:05:29;;;;;;;;;;;9.90;99.90;;;;;;5090150;28;19923;-72
2021/04/11 07:07:58;;;;;;;;;;;10.00;99.90;;;;;;5090051;28;19916;-72
2021/04/11 07:10:35;;;;;;;;;;;10.00;99.90;;;;;;5090471;28;19916;-72
2021/04/11 07:13:15;;;;;;;;;;;10.10;99.90;;;;;;5092798;28;20587;-72
2021/04/11 07:15:41;;;;;;;;;;;10.10;99.90;;;;;;5077668;28;19916;-72
2021/04/11 07:18:11;;;;;;;;;;;10.10;99.90;;;;;;5087613;28;19917;-72
2021/04/11 07:20:55;;;;;;;;;;;10.20;99.90;;;;;;5092423;28;19923;-71
2021/04/11 07:23:26;;;;;;;;;;;10.20;99.90;;;;;;5081400;28;20037;-72
2021/04/11 07:25:54;;;;;;;;;;;10.30;99.90;;;;;;5083639;28;19920;-72
2021/04/11 07:28:20;;;;;;;;;;;10.30;99.90;;;;;;5075123;28;20042;-72
2021/04/11 07:30:47;;;;;;;;;;;10.40;99.90;;;;;;5054995;28;19927;-72
2021/04/11 07:33:13;;;;;;;;;;;10.40;99.90;;;;;;5074005;28;19984;-72
2021/04/11 07:35:41;;;;;;;;;;;10.60;99.90;;;;;;5074554;28;19920;-72
2021/04/11 07:38:15;;;;;;;;;;;10.60;99.90;;;;;;5073721;28;19963;-72
2021/04/11 07:41:01;;;;;;;;;;;10.70;99.90;;;;;;5077648;28;20257;-72
2021/04/11 07:43:29;;;;;;;;;;;10.70;99.90;;;;;;5073516;28;19924;-72
2021/04/11 07:46:15;;;;;;;;;;;10.70;99.90;;;;;;5107858;27;20875;-72
2021/04/11 07:48:55;;;;;;;;;;;10.70;99.90;;;;;;5089056;28;19947;-72
2021/04/11 07:51:36;;;;;;;;;;;10.70;99.90;;;;;;5079319;28;19920;-73
2021/04/11 07:54:11;;;;;;;;;;;10.70;99.90;;;;;;5080054;28;19960;-72
2021/04/11 07:56:57;;;;;;;;;;;10.70;99.90;;;;;;5091822;28;19916;-72
2021/04/11 07:59:33;;;;;;;;;;;10.80;99.90;;;;;;5087573;28;19915;-73
2021/04/11 08:02:22;;;;;;;;;;;10.80;99.90;;;;;;5092502;28;19924;-73
2021/04/11 08:05:06;;;;;;;;;;;10.90;99.90;;;;;;5107200;27;19917;-72
2021/04/11 08:07:31;;;;;;;;;;;11.10;99.90;;;;;;5078145;28;19996;-73
2021/04/11 08:10:16;;;;;;;;;;;11.30;99.90;;;;;;5091932;28;19912;-73
2021/04/11 08:13:00;;;;;;;;;;;11.40;99.90;;;;;;5096162;28;19924;-72
2021/04/11 08:15:32;;;;;;;;;;;11.50;99.90;;;;;;5084204;28;19963;-73
2021/04/11 08:18:04;;;;;;;;;;;11.60;99.90;;;;;;5089779;28;20054;-73
2021/04/11 08:20:37;;;;;;;;;;;11.80;99.90;;;;;;5093840;28;20006;-73
2021/04/11 08:23:06;;;;;;;;;;;12.00;99.90;;;;;;5093632;28;19981;-73
2021/04/11 08:25:43;;;;;;;;;;;12.10;99.90;;;;;;5088905;28;19920;-73
2021/04/11 08:28:09;;;;;;;;;;;12.30;99.90;;;;;;5097716;28;19923;-72
2021/04/11 08:30:53;;;;;;;;;;;12.40;99.90;;;;;;5093673;28;19920;-73
2021/04/11 08:33:33;;;;;;;;;;;12.50;99.90;;;;;;5092408;28;19955;-73
2021/04/11 08:36:17;;;;;;;;;;;12.60;99.90;;;;;;5077270;28;19986;-73
2021/04/11 08:38:58;;;;;;;;;;;12.90;99.90;;;;;;5077869;28;19920;-72
2021/04/11 08:41:38;;;;;;;;;;;13.10;99.90;;;;;;5076871;28;19924;-72
2021/04/11 08:44:04;;;;;;;;;;;13.30;99.90;;;;;;5077485;28;19971;-73
2021/04/11 08:46:48;;;;;;;;;;;13.30;99.90;;;;;;5090569;28;19951;-73
2021/04/11 08:49:24;;;;;;;;;;;13.30;99.90;;;;;;5087778;28;19920;-73
2021/04/11 08:51:52;;;;;;;;;;;13.30;99.90;;;;;;5093553;27;20451;-74
2021/04/11 08:54:36;;;;;;;;;;;13.30;99.90;;;;;;5089553;28;19911;-73
2021/04/11 08:57:05;;;;;;;;;;;13.30;99.90;;;;;;5085952;28;19923;-72
2021/04/11 08:59:51;;;;;;;;;;;13.30;99.90;;;;;;5088064;28;19919;-72
2021/04/11 09:02:28;;;;;;;;;;;13.30;99.90;;;;;;5083248;28;19924;-73
2021/04/11 09:04:53;;;;;;;;;;;13.20;99.90;;;;;;5087986;28;19919;-72
2021/04/11 09:07:27;;;;;;;;;;;13.30;99.90;;;;;;5088016;28;19923;-72
2021/04/11 09:09:55;;;;;;;;;;;13.50;99.90;;;;;;5075717;28;20027;-72
2021/04/11 09:12:21;;;;;;;;;;;13.40;99.90;;;;;;5089814;28;19938;-72
2021/04/11 09:14:52;;;;;;;;;;;13.60;99.90;;;;;;5093002;28;19912;-72
2021/04/11 09:17:36;;;;;;;;;;;13.50;99.90;;;;;;5089865;28;20074;-72
2021/04/11 09:20:20;;;;;;;;;;;13.50;99.90;;;;;;5091910;28;20006;-73
2021/04/11 09:23:07;;;;;;;;;;;13.50;99.90;;;;;;5085739;28;19978;-72
2021/04/11 09:25:33;;;;;;;;;;;13.50;99.90;;;;;;5090707;28;19970;-73
2021/04/11 09:28:09;;;;;;;;;;;13.60;99.90;;;;;;5090194;28;20218;-73
2021/04/11 09:30:47;;;;;;;;;;;13.80;99.90;;;;;;5089705;28;19966;-72
2021/04/11 09:33:18;;;;;;;;;;;13.90;99.90;;;;;;5123478;27;19954;-72
2021/04/11 09:35:49;;;;;;;;;;;13.90;99.90;;;;;;5079236;28;20384;-72
2021/04/11 09:38:21;;;;;;;;;;;14.00;99.90;;;;;;5086281;28;19920;-72
2021/04/11 09:41:18;;;;;;;;;;;13.90;99.90;;;;;;5082193;28;19916;-72
2021/04/11 09:43:50;;;;;;;;;;;13.90;99.90;;;;;;5082193;28;20439;-72
2021/04/11 09:46:32;;;;;;;;;;;13.90;99.90;;;;;;5067079;28;20011;-72
2021/04/11 09:49:04;;;;;;;;;;;14.10;99.90;;;;;;5077644;28;20383;-72
2021/04/11 09:51:35;;;;;;;;;;;14.10;99.90;;;;;;5081425;28;19920;-72
2021/04/11 09:54:07;;;;;;;;;;;14.10;99.90;;;;;;5087678;28;19919;-72
2021/04/11 09:56:35;;;;;;;;;;;14.20;99.90;;;;;;5089150;28;20220;-72
2021/04/11 09:59:12;;;;;;;;;;;14.20;99.90;;;;;;5075029;28;19920;-72
2021/04/11 10:01:49;;;;;;;;;;;14.30;99.90;;;;;;5107217;27;19926;-72
2021/04/11 10:04:20;;;;;;;;;;;14.30;99.90;;;;;;5087821;28;20361;-73
2021/04/11 10:06:51;;;;;;;;;;;14.30;99.90;;;;;;5092466;27;19930;-72
2021/04/11 10:09:40;;;;;;;;;;;14.40;99.90;;;;;;5077949;28;19943;-71
2021/04/11 10:12:06;;;;;;;;;;;14.40;99.90;;;;;;5086327;28;19965;-73
2021/04/11 10:14:31;;;;;;;;;;;14.50;99.90;;;;;;5092014;28;19921;-73
2021/04/11 10:17:01;;;;;;;;;;;14.50;99.90;;;;;;5075937;28;19926;-72
2021/04/11 10:19:31;;;;;;;;;;;14.60;99.90;;;;;;5075252;27;19912;-72
2021/04/11 10:22:12;;;;;;;;;;;14.60;99.90;;;;;;5075910;28;19924;-74
2021/04/11 10:24:45;;;;;;;;;;;14.50;97.80;;;;;;5075293;28;19966;-72
2021/04/11 10:27:27;;;;;;;;;;;14.40;99.90;;;;;;5093237;27;19920;-73
2021/04/11 10:29:53;;;;;;;;;;;14.40;99.90;;;;;;5076893;28;19920;-72
2021/04/11 10:32:24;;;;;;;;;;;14.30;98.20;;;;;;5088417;28;19919;-71
2021/04/11 10:34:55;;;;;;;;;;;14.30;99.80;;;;;;5091305;28;19923;-72
2021/04/11 10:37:40;;;;;;;;;;;14.20;99.90;;;;;;5092142;27;19920;-72
2021/04/11 10:40:08;;;;;;;;;;;14.10;99.90;;;;;;5095387;28;19912;-72
2021/04/11 10:42:47;;;;;;;;;;;14.10;99.90;;;;;;5086943;28;19920;-77
2021/04/11 10:45:20;;;;;;;;;;;14.10;99.90;;;;;;5088864;28;19999;-72
2021/04/11 10:47:55;;;;;;;;;;;14.00;99.90;;;;;;5091517;28;19912;-72
2021/04/11 10:50:27;;;;;;;;;;;13.90;99.90;;;;;;5092302;28;19973;-72
2021/04/11 10:53:31;;;;;;;;;;;13.90;99.90;;;;;;5093131;28;19920;-72
2021/04/11 10:55:59;;;;;;;;;;;13.90;99.90;;;;;;5006741;28;19914;-72
2021/04/11 10:58:43;;;;;;;;;;;13.90;99.90;;;;;;5008318;28;20514;-72
2021/04/11 11:01:29;;;;;;;;;;;13.90;99.90;;;;;;5065491;28;19916;-72
2021/04/11 11:03:55;;;;;;;;;;;13.80;99.90;;;;;;5094885;28;19916;-73
2021/04/11 11:06:23;;;;;;;;;;;13.80;99.90;;;;;;5075203;28;19980;-72
2021/04/11 11:09:09;;;;;;;;;;;13.60;99.90;;;;;;5090587;28;20026;-72
2021/04/11 11:11:43;;;;;;;;;;;13.70;99.90;;;;;;5087878;28;19923;-74
2021/04/11 11:14:12;;;;;;;;;;;13.60;99.90;;;;;;5090647;28;20003;-72
2021/04/11 11:16:47;;;;;;;;;;;13.60;99.90;;;;;;5121612;27;19924;-73
2021/04/11 11:19:18;;;;;;;;;;;13.60;99.90;;;;;;5085581;28;19931;-72
2021/04/11 11:21:44;;;;;;;;;;;13.50;99.90;;;;;;5074343;28;19971;-72
2021/04/11 11:24:18;;;;;;;;;;;13.50;99.90;;;;;;5074397;28;19995;-72
2021/04/11 11:26:56;;;;;;;;;;;13.40;99.90;;;;;;5073809;28;19920;-72
2021/04/11 11:29:40;;;;;;;;;;;13.40;99.90;;;;;;5079272;28;19923;-72
2021/04/11 11:32:06;;;;;;;;;;;13.40;99.90;;;;;;5085452;28;19916;-71
2021/04/11 11:34:32;;;;;;;;;;;13.30;99.90;;;;;;5089392;28;19920;-72
2021/04/11 11:37:18;;;;;;;;;;;13.20;99.90;;;;;;5085874;28;20289;-72
2021/04/11 11:39:53;;;;;;;;;;;13.10;99.90;;;;;;5086174;28;19926;-73
2021/04/11 11:42:18;;;;;;;;;;;13.00;99.90;;;;;;5085777;28;19915;-71
2021/04/11 11:44:44;;;;;;;;;;;12.90;99.90;;;;;;5090067;28;20188;-72
2021/04/11 11:47:28;;;;;;;;;;;12.90;99.90;;;;;;5091833;28;20324;-71
2021/04/11 11:50:29;;;;;;;;;;;12.90;99.90;;;;;;5090858;28;19916;-72
2021/04/11 11:53:00;;;;;;;;;;;12.80;99.90;;;;;;5055376;28;20002;-71
2021/04/11 11:55:34;;;;;;;;;;;12.80;99.90;;;;;;5082645;28;19916;-71
2021/04/11 11:58:08;;;;;;;;;;;12.70;99.90;;;;;;5090638;28;19924;-71
2021/04/11 12:00:37;;;;;;;;;;;12.60;99.90;;;;;;5092610;28;19912;-71
2021/04/11 12:03:03;;;;;;;;;;;12.60;99.90;;;;;;5084617;28;19927;-71
2021/04/11 12:05:37;;;;;;;;;;;12.50;99.90;;;;;;5091600;28;19915;-71
2021/04/11 12:08:06;;;;;;;;;;;12.20;99.90;;;;;;5091259;28;19926;-71
2021/04/11 12:10:35;;;;;;;;;;;12.20;99.90;;;;;;5088969;28;19920;-71
2021/04/11 12:13:20;;;;;;;;;;;12.20;99.90;;;;;;5076215;28;19927;-72
2021/04/11 12:16:03;;;;;;;;;;;12.10;99.90;;;;;;5096890;28;19976;-71
2021/04/11 12:18:41;;;;;;;;;;;11.80;99.90;;;;;;5109682;27;19954;-72
2021/04/11 12:21:10;;;;;;;;;;;11.60;99.90;;;;;;5089928;28;19934;-72
2021/04/11 12:23:38;;;;;;;;;;;11.50;99.90;;;;;;5094194;28;19973;-71
2021/04/11 12:26:09;;;;;;;;;;;11.40;99.90;;;;;;5093182;28;20388;-71
2021/04/11 12:28:35;;;;;;;;;;;11.40;99.90;;;;;;5090395;28;19992;-72
2021/04/11 12:31:10;;;;;;;;;;;11.20;99.90;;;;;;5090415;28;19920;-72
2021/04/11 12:33:36;;;;;;;;;;;11.10;99.90;;;;;;5089087;28;19944;-71
2021/04/11 12:36:14;;;;;;;;;;;11.00;99.90;;;;;;5090490;28;19958;-71
2021/04/11 12:38:42;;;;;;;;;;;10.90;99.90;;;;;;5082096;28;19931;-72
2021/04/11 12:41:28;;;;;;;;;;;10.90;99.90;;;;;;5073162;28;19924;-71
2021/04/11 12:44:12;;;;;;;;;;;10.90;99.90;;;;;;5092936;28;20246;-71
2021/04/11 12:46:39;;;;;;;;;;;10.90;99.90;;;;;;5086230;28;19991;-72
2021/04/11 12:49:19;;;;;;;;;;;10.90;99.90;;;;;;5079877;28;19920;-72
2021/04/11 12:52:03;;;;;;;;;;;10.90;99.90;;;;;;5088329;28;20583;-72
2021/04/11 12:54:40;;;;;;;;;;;10.80;99.90;;;;;;5097255;27;19919;-72
2021/04/11 12:57:05;;;;;;;;;;;10.80;99.90;;;;;;5090151;28;19961;-72
2021/04/11 12:59:38;;;;;;;;;;;10.80;99.90;;;;;;5091888;28;19925;-72
2021/04/11 13:02:15;;;;;;;;;;;10.70;99.90;;;;;;5105426;27;19927;-72
2021/04/11 13:04:44;;;;;;;;;;;10.60;99.90;;;;;;5094555;28;20369;-72
2021/04/11 13:07:09;;;;;;;;;;;10.70;99.90;;;;;;5090820;28;19916;-72
2021/04/11 13:09:37;;;;;;;;;;;10.70;99.90;;;;;;5091989;28;19973;-72
2021/04/11 13:12:05;;;;;;;;;;;10.50;99.90;;;;;;5092648;28;19959;-73
2021/04/11 13:14:33;;;;;;;;;;;10.50;99.90;;;;;;5090177;28;20384;-72
2021/04/11 13:17:00;;;;;;;;;;;10.50;99.90;;;;;;5085745;28;19912;-72
2021/04/11 13:19:26;;;;;;;;;;;10.50;99.90;;;;;;5080501;28;19927;-72
2021/04/11 13:21:52;;;;;;;;;;;10.50;99.90;;;;;;5086097;28;19921;-72
2021/04/11 13:24:22;;;;;;;;;;;10.60;99.90;;;;;;5091416;28;19920;-72
2021/04/11 13:27:07;;;;;;;;;;;10.60;99.90;;;;;;5088296;28;19928;-72
2021/04/11 13:29:34;;;;;;;;;;;10.40;99.90;;;;;;5095378;28;19924;-72
2021/04/11 13:32:02;;;;;;;;;;;10.30;99.90;;;;;;5092570;28;20323;-72
2021/04/11 13:34:29;;;;;;;;;;;10.30;99.90;;;;;;5094230;28;19911;-72
2021/04/11 13:36:55;;;;;;;;;;;10.40;99.90;;;;;;5091840;28;19911;-72
2021/04/11 13:39:22;;;;;;;;;;;10.30;99.90;;;;;;5092192;28;19923;-72
2021/04/11 13:42:05;;;;;;;;;;;10.00;99.90;;;;;;5089190;28;19919;-72
2021/04/11 13:44:45;;;;;;;;;;;9.90;99.90;;;;;;5088259;28;20399;-72
2021/04/11 13:47:11;;;;;;;;;;;9.90;99.90;;;;;;5091941;28;20368;-72
2021/04/11 13:49:50;;;;;;;;;;;9.60;99.90;;;;;;5095337;28;19912;-72
2021/04/11 13:52:24;;;;;;;;;;;9.60;99.90;;;;;;5088221;28;20388;-72
2021/04/11 13:55:03;;;;;;;;;;;9.50;99.90;;;;;;5083236;28;19912;-71
2021/04/11 13:57:37;;;;;;;;;;;9.40;99.90;;;;;;5092248;28;19926;-72
2021/04/11 14:00:25;;;;;;;;;;;9.30;99.90;;;;;;5087523;28;19926;-72
2021/04/11 14:02:50;;;;;;;;;;;9.10;99.90;;;;;;5090616;28;20521;-72
2021/04/11 14:05:28;;;;;;;;;;;9.00;99.90;;;;;;5089793;28;19916;-72
2021/04/11 14:08:08;;;;;;;;;;;8.90;99.90;;;;;;5089682;28;19982;-72
2021/04/11 14:10:38;;;;;;;;;;;8.70;99.90;;;;;;5090396;28;19915;-72
2021/04/11 14:13:25;;;;;;;;;;;8.60;99.90;;;;;;5122004;27;19977;-72
2021/04/11 14:16:17;;;;;;;;;;;8.60;99.90;;;;;;5087110;28;20266;-72
2021/04/11 14:18:46;;;;;;;;;;;8.60;99.90;;;;;;5092490;28;19911;-72
2021/04/11 14:21:12;;;;;;;;;;;8.40;99.90;;;;;;5090724;28;20035;-72
2021/04/11 14:23:50;;;;;;;;;;;8.30;99.90;;;;;;5090577;28;20102;-72
2021/04/11 14:26:25;;;;;;;;;;;8.20;99.90;;;;;;5089552;28;19916;-72
2021/04/11 14:29:07;;;;;;;;;;;8.00;99.90;;;;;;5089933;28;19920;-72
2021/04/11 14:31:35;;;;;;;;;;;7.90;99.90;;;;;;5090429;28;19916;-72
2021/04/11 14:34:16;;;;;;;;;;;7.90;99.90;;;;;;5077934;28;19999;-72
2021/04/11 14:36:43;;;;;;;;;;;7.90;99.90;;;;;;5101329;27;19912;-76
2021/04/11 14:39:15;;;;;;;;;;;7.70;99.90;;;;;;5089694;28;20042;-74
2021/04/11 14:41:41;;;;;;;;;;;7.50;99.90;;;;;;5088489;28;19916;-72
2021/04/11 14:44:07;;;;;;;;;;;7.30;99.90;;;;;;5097120;28;20000;-74
2021/04/11 14:46:32;;;;;;;;;;;7.20;99.90;;;;;;5089985;28;19959;-73
2021/04/11 14:49:11;;;;;;;;;;;7.10;99.90;;;;;;5083972;28;19913;-74
2021/04/11 14:51:53;;;;;;;;;;;7.00;99.90;;;;;;5090183;28;20572;-73